createdAt,value
2017-08-28T00:00:05.337Z,80.10
2017-08-28T00:02:31.382Z,80.30
2017-08-28T00:04:57.380Z,80.30
2017-08-28T00:07:23.409Z,80.40
2017-08-28T00:09:49.656Z,80.40
2017-08-28T00:12:15.683Z,80.40
2017-08-28T00:14:41.722Z,80.40
2017-08-28T00:17:07.760Z,80.30
2017-08-28T00:19:33.781Z,80.60
2017-08-28T00:21:59.789Z,80.70
2017-08-28T00:24:25.847Z,81.00
2017-08-28T00:26:51.899Z,81.00
2017-08-28T00:29:17.943Z,81.00
2017-08-28T00:31:44.360Z,81.10
2017-08-28T00:34:10.379Z,81.40
2017-08-28T00:36:36.405Z,81.50
2017-08-28T00:39:02.456Z,81.70
2017-08-28T00:41:28.471Z,81.70
2017-08-28T00:43:54.525Z,81.60
2017-08-28T00:46:20.583Z,81.50
2017-08-28T00:48:46.624Z,81.60
2017-08-28T00:51:12.758Z,81.60
2017-08-28T00:53:38.773Z,81.90
2017-08-28T00:56:04.800Z,82.00
2017-08-28T00:58:30.849Z,82.10
2017-08-28T01:00:56.889Z,82.30
2017-08-28T01:03:22.921Z,82.10
2017-08-28T01:05:48.961Z,82.10
2017-08-28T01:08:14.989Z,82.20
2017-08-28T01:10:41.009Z,81.90
2017-08-28T01:13:07.337Z,81.90
2017-08-28T01:15:33.381Z,82.00
2017-08-28T01:17:59.469Z,82.00
2017-08-28T01:20:25.519Z,82.10
2017-08-28T01:22:51.520Z,82.10
2017-08-28T01:25:17.525Z,82.10
2017-08-28T01:27:43.577Z,81.90
2017-08-28T01:30:09.624Z,82.00
2017-08-28T01:32:35.979Z,81.90
2017-08-28T01:35:02.010Z,82.00
2017-08-28T01:37:28.291Z,81.90
2017-08-28T01:39:54.317Z,81.90
2017-08-28T01:42:20.347Z,81.90
2017-08-28T01:44:46.404Z,81.90
2017-08-28T01:47:12.457Z,81.70
2017-08-28T01:49:38.492Z,81.80
2017-08-28T01:52:04.545Z,82.00
2017-08-28T01:54:30.601Z,82.00
2017-08-28T01:56:56.743Z,82.30
2017-08-28T01:59:22.806Z,82.50
2017-08-28T02:01:48.828Z,82.50
2017-08-28T02:04:14.908Z,82.70
2017-08-28T02:06:41.140Z,82.70
2017-08-28T02:09:07.161Z,82.40
2017-08-28T02:11:33.165Z,82.40
2017-08-28T02:13:59.243Z,82.40
2017-08-28T02:16:25.298Z,82.40
2017-08-28T02:18:51.334Z,82.30
2017-08-28T02:21:17.562Z,82.40
2017-08-28T02:23:43.590Z,82.40
2017-08-28T02:26:09.588Z,82.40
2017-08-28T02:28:35.639Z,82.50
2017-08-28T02:31:01.700Z,82.30
2017-08-28T02:33:27.704Z,82.30
2017-08-28T02:35:53.796Z,82.30
2017-08-28T02:38:19.895Z,82.30
2017-08-28T02:40:45.983Z,82.40
2017-08-28T02:43:12.046Z,82.30
2017-08-28T02:45:38.070Z,82.10
2017-08-28T02:48:04.413Z,82.30
2017-08-28T02:50:30.478Z,82.20
2017-08-28T02:52:56.497Z,82.10
2017-08-28T02:55:22.578Z,82.00
2017-08-28T02:57:48.597Z,81.90
2017-08-28T03:00:14.666Z,82.00
2017-08-28T03:02:40.693Z,82.00
2017-08-28T03:05:06.949Z,81.90
2017-08-28T03:07:32.973Z,81.90
2017-08-28T03:09:58.992Z,82.00
2017-08-28T03:12:25.344Z,82.30
2017-08-28T03:14:51.365Z,82.00
2017-08-28T03:17:17.367Z,82.00
2017-08-28T03:19:43.712Z,81.90
2017-08-28T03:22:09.731Z,82.10
2017-08-28T03:24:35.768Z,82.20
2017-08-28T03:27:01.812Z,82.20
2017-08-28T03:29:27.838Z,82.00
2017-08-28T03:31:53.875Z,82.00
2017-08-28T03:34:19.885Z,82.20
2017-08-28T03:36:45.937Z,82.00
2017-08-28T03:39:12.004Z,82.00
2017-08-28T03:41:38.032Z,82.00
2017-08-28T03:44:04.062Z,82.10
2017-08-28T03:46:30.143Z,82.20
2017-08-28T03:48:56.191Z,81.90
2017-08-28T03:51:22.256Z,82.00
2017-08-28T03:53:48.634Z,82.10
2017-08-28T03:56:14.702Z,82.00
2017-08-28T03:58:40.736Z,82.70
2017-08-28T04:01:06.784Z,81.90
2017-08-28T04:03:32.881Z,82.00
2017-08-28T04:05:58.996Z,82.10
2017-08-28T04:08:25.070Z,81.90
2017-08-28T04:10:51.123Z,82.50
2017-08-28T04:13:17.144Z,82.20
2017-08-28T04:15:43.180Z,82.20
2017-08-28T04:18:09.206Z,82.10
2017-08-28T04:20:35.243Z,81.80
2017-08-28T04:23:01.285Z,82.00
2017-08-28T04:25:27.302Z,82.00
2017-08-28T04:27:53.315Z,82.20
2017-08-28T04:30:19.346Z,82.30
2017-08-28T04:32:45.368Z,82.20
2017-08-28T04:35:11.424Z,82.60
2017-08-28T04:37:37.472Z,82.30
2017-08-28T04:40:03.732Z,82.20
2017-08-28T04:42:29.807Z,82.00
2017-08-28T04:44:56.318Z,82.20
2017-08-28T04:47:22.351Z,82.20
2017-08-28T04:49:49.556Z,81.90
2017-08-28T04:52:15.579Z,81.80
2017-08-28T04:54:41.601Z,82.00
2017-08-28T04:57:07.860Z,82.00
2017-08-28T04:59:33.946Z,81.90
2017-08-28T05:01:59.980Z,81.80
2017-08-28T05:04:26.329Z,82.50
2017-08-28T05:06:52.364Z,82.20
2017-08-28T05:09:18.397Z,82.30
2017-08-28T05:11:44.456Z,82.70
2017-08-28T05:14:10.491Z,83.40
2017-08-28T05:16:36.525Z,83.60
2017-08-28T05:19:02.586Z,83.90
2017-08-28T05:21:28.638Z,83.90
2017-08-28T05:23:54.693Z,83.70
2017-08-28T05:26:20.734Z,83.40
2017-08-28T05:28:46.754Z,83.40
2017-08-28T05:31:12.776Z,83.20
2017-08-28T05:33:38.798Z,83.30
2017-08-28T05:36:04.830Z,82.90
2017-08-28T05:38:30.851Z,83.00
2017-08-28T05:40:56.933Z,82.80
2017-08-28T05:43:22.960Z,82.80
2017-08-28T05:45:48.982Z,82.60
2017-08-28T05:48:15.046Z,82.20
2017-08-28T05:50:41.072Z,82.30
2017-08-28T05:53:07.103Z,82.10
2017-08-28T05:55:33.157Z,82.40
2017-08-28T05:57:59.182Z,82.00
2017-08-28T06:00:25.392Z,82.60
2017-08-28T06:02:51.401Z,82.30
2017-08-28T06:05:17.424Z,82.30
2017-08-28T06:07:43.614Z,82.30
2017-08-28T06:10:09.632Z,82.30
2017-08-28T06:12:35.649Z,82.50
2017-08-28T06:15:01.877Z,82.00
2017-08-28T06:17:27.913Z,81.70
2017-08-28T06:19:53.936Z,82.10
2017-08-28T06:22:19.988Z,82.10
2017-08-28T06:24:46.014Z,82.20
2017-08-28T06:27:12.037Z,82.20
2017-08-28T06:29:38.128Z,81.90
2017-08-28T06:32:04.156Z,81.20
2017-08-28T06:34:30.168Z,81.30
2017-08-28T06:36:56.185Z,81.20
2017-08-28T06:39:22.231Z,81.10
2017-08-28T06:41:48.244Z,81.20
2017-08-28T06:44:15.086Z,81.10
2017-08-28T06:46:41.104Z,80.90
2017-08-28T06:49:07.106Z,80.80
2017-08-28T06:51:33.155Z,80.60
2017-08-28T06:53:59.160Z,80.10
2017-08-28T06:56:25.167Z,80.60
2017-08-28T06:58:51.246Z,80.10
2017-08-28T07:01:17.321Z,80.30
2017-08-28T07:03:43.356Z,80.20
2017-08-28T07:06:09.384Z,80.00
2017-08-28T07:08:35.402Z,80.20
2017-08-28T07:11:08.621Z,79.50
2017-08-28T07:13:34.622Z,80.00
2017-08-28T07:16:00.639Z,79.30
2017-08-28T07:18:26.967Z,79.60
2017-08-28T07:20:52.992Z,79.20
2017-08-28T07:23:19.023Z,78.90
2017-08-28T07:25:45.068Z,78.70
2017-08-28T07:28:11.071Z,78.30
2017-08-28T07:30:37.100Z,78.20
2017-08-28T07:33:03.190Z,78.00
2017-08-28T07:35:29.208Z,78.00
2017-08-28T07:37:55.221Z,77.90
2017-08-28T07:40:21.263Z,76.90
2017-08-28T07:42:47.301Z,77.00
2017-08-28T07:45:13.320Z,77.20
2017-08-28T07:47:39.633Z,76.80
2017-08-28T07:50:05.640Z,76.70
2017-08-28T07:52:31.646Z,76.50
2017-08-28T07:54:57.676Z,76.40
2017-08-28T07:57:23.705Z,76.30
2017-08-28T07:59:49.773Z,75.80
2017-08-28T08:02:15.793Z,76.30
2017-08-28T08:04:41.841Z,76.50
2017-08-28T08:07:07.876Z,75.20
2017-08-28T08:09:33.910Z,74.10
2017-08-28T08:11:59.953Z,73.00
2017-08-28T08:14:26.235Z,73.50
2017-08-28T08:16:52.260Z,74.20
2017-08-28T08:19:18.276Z,73.60
2017-08-28T08:21:44.349Z,72.10
2017-08-28T08:24:10.357Z,72.60
2017-08-28T08:26:36.376Z,72.60
2017-08-28T08:29:02.441Z,71.60
2017-08-28T08:31:28.512Z,71.00
2017-08-28T08:34:00.770Z,71.00
2017-08-28T08:36:27.015Z,70.10
2017-08-28T08:38:53.012Z,70.90
2017-08-28T08:41:19.055Z,71.10
2017-08-28T08:43:45.372Z,69.90
2017-08-28T08:46:11.433Z,69.70
2017-08-28T08:48:37.433Z,69.60
2017-08-28T08:51:03.455Z,68.90
2017-08-28T08:53:29.503Z,68.80
2017-08-28T08:55:55.791Z,68.70
2017-08-28T08:58:21.826Z,68.40
2017-08-28T09:00:47.861Z,67.50
2017-08-28T09:03:13.885Z,66.10
2017-08-28T09:05:39.894Z,66.40
2017-08-28T09:08:05.903Z,65.80
2017-08-28T09:10:31.928Z,66.90
2017-08-28T09:12:57.952Z,66.00
2017-08-28T09:15:24.171Z,65.30
2017-08-28T09:17:50.172Z,64.70
2017-08-28T09:20:16.175Z,64.10
2017-08-28T09:22:42.242Z,64.50
2017-08-28T09:25:08.258Z,63.90
2017-08-28T09:27:34.272Z,63.20
2017-08-28T09:30:00.536Z,63.80
2017-08-28T09:32:33.521Z,63.40
2017-08-28T09:34:59.817Z,62.00
2017-08-28T09:37:25.822Z,61.60
2017-08-28T09:39:51.837Z,62.10
2017-08-28T09:42:18.377Z,60.70
2017-08-28T09:44:44.406Z,57.70
2017-08-28T09:47:10.404Z,57.50
2017-08-28T09:49:36.424Z,54.40
2017-08-28T09:52:02.478Z,52.80
2017-08-28T09:54:28.564Z,49.30
2017-08-28T09:56:54.571Z,49.70
2017-08-28T09:59:20.582Z,47.10
2017-08-28T10:01:46.623Z,46.20
2017-08-28T10:04:12.644Z,46.90
2017-08-28T10:06:38.666Z,45.80
2017-08-28T10:09:04.684Z,46.40
2017-08-28T10:11:30.694Z,45.50
2017-08-28T10:13:56.966Z,44.40
2017-08-28T10:16:23.002Z,43.40
2017-08-28T10:18:49.023Z,44.20
2017-08-28T10:21:15.034Z,45.00
2017-08-28T10:23:41.029Z,46.10
2017-08-28T10:26:07.272Z,46.90
2017-08-28T10:28:33.288Z,46.80
2017-08-28T10:30:59.284Z,47.60
2017-08-28T10:33:25.296Z,46.00
2017-08-28T10:35:51.309Z,44.60
2017-08-28T10:38:17.324Z,43.60
2017-08-28T10:40:43.330Z,45.20
2017-08-28T10:43:09.333Z,45.70
2017-08-28T10:45:35.357Z,47.00
2017-08-28T10:48:01.397Z,50.10
2017-08-28T10:50:27.693Z,50.60
2017-08-28T10:52:53.757Z,51.40
2017-08-28T10:55:19.809Z,51.90
2017-08-28T10:57:45.828Z,51.90
2017-08-28T11:00:11.865Z,52.30
2017-08-28T11:02:38.118Z,52.50
2017-08-28T11:05:04.140Z,53.00
2017-08-28T11:07:30.154Z,52.20
2017-08-28T11:09:56.172Z,51.80
2017-08-28T11:12:22.210Z,52.10
2017-08-28T11:14:48.245Z,53.90
2017-08-28T11:17:14.256Z,54.20
2017-08-28T11:19:40.357Z,54.70
2017-08-28T11:22:07.562Z,55.40
2017-08-28T11:24:33.569Z,55.40
2017-08-28T11:26:59.589Z,56.00
2017-08-28T11:29:25.608Z,56.60
2017-08-28T11:31:51.613Z,58.50
2017-08-28T11:34:17.632Z,58.10
2017-08-28T11:36:43.630Z,57.10
2017-08-28T11:39:09.646Z,57.80
2017-08-28T11:41:35.670Z,57.20
2017-08-28T11:44:01.681Z,57.10
2017-08-28T11:46:27.704Z,57.10
2017-08-28T11:48:53.749Z,58.20
2017-08-28T11:51:20.116Z,57.40
2017-08-28T11:53:46.121Z,57.30
2017-08-28T11:56:12.144Z,57.70
2017-08-28T11:58:38.177Z,58.10
2017-08-28T12:01:04.228Z,58.60
2017-08-28T12:03:30.224Z,58.30
2017-08-28T12:05:56.241Z,58.40
2017-08-28T12:08:22.638Z,58.30
2017-08-28T12:10:48.645Z,58.40
2017-08-28T12:13:14.657Z,57.90
2017-08-28T12:15:40.705Z,59.00
2017-08-28T12:18:06.708Z,58.30
2017-08-28T12:20:32.724Z,57.70
2017-08-28T12:22:58.769Z,58.70
2017-08-28T12:25:24.821Z,59.60
2017-08-28T12:27:50.909Z,57.90
2017-08-28T12:30:16.945Z,57.40
2017-08-28T12:32:42.969Z,57.20
2017-08-28T12:35:08.985Z,58.00
2017-08-28T12:37:35.281Z,57.80
2017-08-28T12:40:01.312Z,57.40
2017-08-28T12:42:27.333Z,57.60
2017-08-28T12:44:53.385Z,57.40
2017-08-28T12:47:19.388Z,58.40
2017-08-28T12:49:45.412Z,57.70
2017-08-28T12:52:11.442Z,59.20
2017-08-28T12:54:37.467Z,56.80
2017-08-28T12:57:03.516Z,57.10
2017-08-28T12:59:29.715Z,56.10
2017-08-28T13:01:55.744Z,56.40
2017-08-28T13:04:21.797Z,58.30
2017-08-28T13:06:47.868Z,59.00
2017-08-28T13:09:13.918Z,57.80
2017-08-28T13:11:39.951Z,57.90
2017-08-28T13:14:06.137Z,58.40
2017-08-28T13:16:32.152Z,58.60
2017-08-28T13:18:58.336Z,59.20
2017-08-28T13:21:24.365Z,59.70
2017-08-28T13:23:50.385Z,59.70
2017-08-28T13:26:16.446Z,64.10
2017-08-28T13:28:42.568Z,64.30
2017-08-28T13:31:08.596Z,58.50
2017-08-28T13:33:34.637Z,58.10
2017-08-28T13:36:00.663Z,56.50
2017-08-28T13:38:26.677Z,58.30
2017-08-28T13:40:52.979Z,59.70
2017-08-28T13:43:18.991Z,59.80
2017-08-28T13:45:45.017Z,59.70
2017-08-28T13:48:11.053Z,58.90
2017-08-28T13:50:37.072Z,58.80
2017-08-28T13:53:03.128Z,61.60
2017-08-28T13:55:29.517Z,59.30
2017-08-28T13:57:55.555Z,59.90
2017-08-28T14:00:21.569Z,58.60
2017-08-28T14:02:47.597Z,59.70
2017-08-28T14:05:13.613Z,60.40
2017-08-28T14:10:43.166Z,62.80
2017-08-28T14:13:09.200Z,64.20
2017-08-28T14:15:35.229Z,63.90
2017-08-28T14:18:01.287Z,63.70
2017-08-28T14:20:27.637Z,64.00
2017-08-28T14:22:53.661Z,63.50
2017-08-28T14:25:19.678Z,62.90
2017-08-28T14:27:45.872Z,62.80
2017-08-28T14:30:11.910Z,62.10
2017-08-28T14:32:37.957Z,61.00
2017-08-28T14:35:03.985Z,61.80
2017-08-28T14:37:29.992Z,63.10
2017-08-28T14:39:56.036Z,64.30
2017-08-28T14:42:22.077Z,62.00
2017-08-28T14:44:48.079Z,62.70
2017-08-28T14:47:14.072Z,62.60
2017-08-28T14:49:40.121Z,62.30
2017-08-28T14:52:06.153Z,61.40
2017-08-28T14:54:32.170Z,61.60
2017-08-28T14:56:58.181Z,60.40
2017-08-28T14:59:24.189Z,62.10
2017-08-28T15:01:50.242Z,62.00
2017-08-28T15:04:16.260Z,62.80
2017-08-28T15:06:42.290Z,64.30
2017-08-28T15:09:08.352Z,63.40
2017-08-28T15:11:34.356Z,63.30
2017-08-28T15:14:00.360Z,59.50
2017-08-28T15:16:26.389Z,63.60
2017-08-28T15:18:52.401Z,64.10
2017-08-28T15:21:18.418Z,62.70
2017-08-28T15:23:44.432Z,65.10
2017-08-28T15:26:10.449Z,63.00
2017-08-28T15:28:36.505Z,62.70
2017-08-28T15:31:02.511Z,61.70
2017-08-28T15:33:28.548Z,59.80
2017-08-28T15:35:54.896Z,57.80
2017-08-28T15:38:20.901Z,56.20
2017-08-28T15:40:46.930Z,56.30
2017-08-28T15:43:12.989Z,55.70
2017-08-28T15:45:39.006Z,55.70
2017-08-28T15:48:05.009Z,55.80
2017-08-28T15:50:31.029Z,54.90
2017-08-28T15:52:57.049Z,55.40
2017-08-28T15:55:23.054Z,54.80
2017-08-28T15:57:49.591Z,55.10
2017-08-28T16:00:15.614Z,55.20
2017-08-28T16:02:41.660Z,55.30
2017-08-28T16:05:07.757Z,55.90
2017-08-28T16:07:33.780Z,55.80
2017-08-28T16:09:59.801Z,55.00
2017-08-28T16:12:25.852Z,55.10
2017-08-28T16:14:51.858Z,54.10
2017-08-28T16:17:18.545Z,54.40
2017-08-28T16:19:44.809Z,54.70
2017-08-28T16:22:10.863Z,54.30
2017-08-28T16:24:36.883Z,54.90
2017-08-28T16:27:02.929Z,55.70
2017-08-28T16:29:28.973Z,55.50
2017-08-28T16:31:54.996Z,55.30
2017-08-28T16:34:21.344Z,55.70
2017-08-28T16:36:47.400Z,56.10
2017-08-28T16:39:13.435Z,55.60
2017-08-28T16:41:39.705Z,56.10
2017-08-28T16:46:38.477Z,57.00
2017-08-28T16:49:04.845Z,57.50
2017-08-28T16:51:30.862Z,56.90
2017-08-28T16:53:56.887Z,57.10
2017-08-28T16:56:22.933Z,60.10
2017-08-28T16:58:48.942Z,61.10
2017-08-28T17:01:14.976Z,57.80
2017-08-28T17:03:41.005Z,58.90
2017-08-28T17:06:07.019Z,57.80
2017-08-28T17:08:33.046Z,58.80
2017-08-28T17:10:59.239Z,57.80
2017-08-28T17:13:25.255Z,58.70
2017-08-28T17:15:51.269Z,59.60
2017-08-28T17:18:17.712Z,58.80
2017-08-28T17:20:43.724Z,59.10
2017-08-28T17:23:10.220Z,58.70
2017-08-28T17:25:36.508Z,60.70
2017-08-28T17:28:02.569Z,58.70
2017-08-28T17:30:28.607Z,60.30
2017-08-28T17:32:54.661Z,61.80
2017-08-28T17:35:20.681Z,62.70
2017-08-28T17:37:46.910Z,61.30
2017-08-28T17:40:13.299Z,61.80
2017-08-28T17:42:39.350Z,62.80
2017-08-28T17:45:05.592Z,63.10
2017-08-28T17:47:31.611Z,63.80
2017-08-28T17:49:57.649Z,64.00
2017-08-28T17:52:23.683Z,64.10
2017-08-28T17:54:49.696Z,64.50
2017-08-28T17:57:15.714Z,64.70
2017-08-28T17:59:41.794Z,64.70
2017-08-28T18:02:07.834Z,64.70
2017-08-28T18:04:33.923Z,64.60
2017-08-28T18:06:59.980Z,65.70
2017-08-28T18:09:26.209Z,66.20
2017-08-28T18:11:52.241Z,66.30
2017-08-28T18:14:18.252Z,66.30
2017-08-28T18:16:44.281Z,67.40
2017-08-28T18:19:10.301Z,67.00
2017-08-28T18:21:36.371Z,66.60
2017-08-28T18:24:02.649Z,66.80
2017-08-28T18:26:28.662Z,67.00
2017-08-28T18:28:54.710Z,67.10
2017-08-28T18:31:21.024Z,67.10
2017-08-28T18:33:47.036Z,67.10
2017-08-28T18:36:13.080Z,67.10
2017-08-28T18:38:39.419Z,67.50
2017-08-28T18:41:05.446Z,68.40
2017-08-28T18:43:31.481Z,68.20
2017-08-28T18:45:57.722Z,68.60
2017-08-28T18:48:23.749Z,68.90
2017-08-28T18:50:49.829Z,68.70
2017-08-28T18:53:16.237Z,69.00
2017-08-28T18:55:43.071Z,69.20
2017-08-28T18:58:09.089Z,69.30
2017-08-28T19:00:35.304Z,69.60
2017-08-28T19:03:01.325Z,69.90
2017-08-28T19:05:27.367Z,70.40
2017-08-28T19:07:53.583Z,70.60
2017-08-28T19:10:19.689Z,70.60
2017-08-28T19:12:45.934Z,70.80
2017-08-28T19:15:12.019Z,70.70
2017-08-28T19:17:38.041Z,71.10
2017-08-28T19:20:04.087Z,71.20
2017-08-28T19:22:30.431Z,71.20
2017-08-28T19:24:56.457Z,71.10
2017-08-28T19:27:22.484Z,71.30
2017-08-28T19:29:48.506Z,71.50
2017-08-28T19:32:18.369Z,71.70
2017-08-28T19:34:57.941Z,71.60
2017-08-28T19:37:23.971Z,71.90
2017-08-28T19:39:49.998Z,72.10
2017-08-28T19:42:16.410Z,72.40
2017-08-28T19:44:42.463Z,72.80
2017-08-28T19:47:08.482Z,72.60
2017-08-28T19:49:34.552Z,72.90
2017-08-28T19:52:00.583Z,73.00
2017-08-28T19:54:26.744Z,73.20
2017-08-28T19:56:52.815Z,73.20
2017-08-28T19:59:18.832Z,73.30
2017-08-28T20:01:45.158Z,73.80
2017-08-28T20:04:11.223Z,74.20
2017-08-28T20:06:37.247Z,74.80
2017-08-28T20:09:03.322Z,74.00
2017-08-28T20:11:29.376Z,74.10
2017-08-28T20:13:55.398Z,74.20
2017-08-28T20:16:21.396Z,74.30
2017-08-28T20:18:47.449Z,74.40
2017-08-28T20:21:13.477Z,74.50
2017-08-28T20:23:39.549Z,74.60
2017-08-28T20:26:05.571Z,74.70
2017-08-28T20:28:31.606Z,75.00
2017-08-28T20:30:57.641Z,75.00
2017-08-28T20:33:24.561Z,75.10
2017-08-28T20:35:50.826Z,75.10
2017-08-28T20:38:16.857Z,74.90
2017-08-28T20:40:43.349Z,75.20
2017-08-28T20:43:09.710Z,75.30
2017-08-28T20:45:35.816Z,75.20
2017-08-28T20:48:01.877Z,75.30
2017-08-28T20:50:27.932Z,75.60
2017-08-28T20:52:53.976Z,75.70
2017-08-28T20:55:20.025Z,75.90
2017-08-28T20:57:46.438Z,76.00
2017-08-28T21:00:12.700Z,75.90
2017-08-28T21:02:38.973Z,75.90
2017-08-28T21:05:05.097Z,76.00
2017-08-28T21:07:31.107Z,76.00
2017-08-28T21:09:57.134Z,76.20
2017-08-28T21:12:23.152Z,75.90
2017-08-28T21:14:49.186Z,75.90
2017-08-28T21:17:15.328Z,75.70
2017-08-28T21:19:41.382Z,75.70
2017-08-28T21:22:07.570Z,75.70
2017-08-28T21:24:34.005Z,74.40
2017-08-28T21:27:00.286Z,74.40
2017-08-28T21:29:27.156Z,73.60
2017-08-28T21:31:53.350Z,72.90
2017-08-28T21:34:19.480Z,71.80
2017-08-28T21:36:45.617Z,72.30
2017-08-28T21:39:12.850Z,72.30
2017-08-28T21:41:39.016Z,73.30
2017-08-28T21:44:05.249Z,72.30
2017-08-28T21:46:31.438Z,72.80
2017-08-28T21:48:57.635Z,72.00
2017-08-28T21:51:23.751Z,72.10
2017-08-28T21:53:49.972Z,72.90
2017-08-28T21:56:16.229Z,72.90
2017-08-28T21:58:42.397Z,72.90
2017-08-28T22:01:08.768Z,72.60
2017-08-28T22:03:35.476Z,72.90
2017-08-28T22:06:01.655Z,72.30
2017-08-28T22:08:28.051Z,72.50
2017-08-28T22:10:54.439Z,73.30
2017-08-28T22:13:20.664Z,73.40
2017-08-28T22:15:47.130Z,72.30
2017-08-28T22:18:13.373Z,72.70
2017-08-28T22:20:39.603Z,73.40
2017-08-28T22:23:05.966Z,73.60
2017-08-28T22:25:32.053Z,74.00
2017-08-28T22:27:58.124Z,73.90
2017-08-28T22:30:24.148Z,74.80
2017-08-28T22:32:50.178Z,74.00
2017-08-28T22:35:16.421Z,74.50
2017-08-28T22:37:42.436Z,74.50
2017-08-28T22:40:08.491Z,74.50
2017-08-28T22:42:34.801Z,75.40
2017-08-28T22:45:00.821Z,75.20
2017-08-28T22:47:26.826Z,75.40
2017-08-28T22:49:53.062Z,75.70
2017-08-28T22:52:19.076Z,75.40
2017-08-28T22:54:45.116Z,75.70
2017-08-28T22:57:11.144Z,76.20
2017-08-28T22:59:37.170Z,76.40
2017-08-28T23:02:03.194Z,76.30
2017-08-28T23:04:29.465Z,76.40
2017-08-28T23:06:55.514Z,76.70
2017-08-28T23:09:21.525Z,76.80
2017-08-28T23:11:47.561Z,76.50
2017-08-28T23:14:13.580Z,76.80
2017-08-28T23:16:39.609Z,76.90
2017-08-28T23:19:05.704Z,76.90
2017-08-28T23:21:31.732Z,76.90
2017-08-28T23:23:57.760Z,77.00
2017-08-28T23:26:24.576Z,76.90
2017-08-28T23:28:50.612Z,77.10
2017-08-28T23:31:16.640Z,77.20
2017-08-28T23:33:42.702Z,77.10
2017-08-28T23:36:08.725Z,77.20
2017-08-28T23:38:34.753Z,77.40
2017-08-28T23:41:00.777Z,77.50
2017-08-28T23:43:26.805Z,77.60
2017-08-28T23:45:52.821Z,77.70
2017-08-28T23:48:18.909Z,78.00
2017-08-28T23:50:44.932Z,78.10
2017-08-28T23:53:10.958Z,78.20
2017-08-28T23:55:37.277Z,78.20
2017-08-28T23:58:03.280Z,78.20
